createdAt,value
2019-02-27T00:02:22.736Z,101332.59
2019-02-27T00:04:48.946Z,101338.42
2019-02-27T00:07:15.296Z,101333.67
2019-02-27T00:09:42.639Z,101333.14
2019-02-27T00:12:09.052Z,101326.59
2019-02-27T00:14:35.701Z,101323.53
2019-02-27T00:17:02.573Z,101328.67
2019-02-27T00:19:31.329Z,101329.48
2019-02-27T00:21:57.479Z,101328.38
2019-02-27T00:24:23.812Z,101322.56
2019-02-27T00:26:50.411Z,101324.59
2019-02-27T00:29:16.819Z,101318.53
2019-02-27T00:31:45.991Z,101310.41
2019-02-27T00:34:11.975Z,101313.78
2019-02-27T00:36:38.701Z,101305.16
2019-02-27T00:39:07.544Z,101308.73
2019-02-27T00:41:34.305Z,101309.95
2019-02-27T00:44:01.458Z,101317.43
2019-02-27T00:46:29.521Z,101318.29
2019-02-27T00:48:59.085Z,101308.91
2019-02-27T00:51:24.093Z,101299.13
2019-02-27T00:53:50.678Z,101294.33
2019-02-27T00:56:17.057Z,101308.36
2019-02-27T00:58:43.689Z,101297.80
2019-02-27T01:01:12.673Z,101298.37
2019-02-27T01:03:38.616Z,101297.80
2019-02-27T01:06:05.393Z,101294.30
2019-02-27T01:08:31.723Z,101294.20
2019-02-27T01:10:58.444Z,101297.52
2019-02-27T01:13:25.090Z,101295.30
2019-02-27T01:15:51.437Z,101292.45
2019-02-27T01:18:18.130Z,101290.11
2019-02-27T01:20:58.478Z,101290.66
2019-02-27T01:23:24.836Z,101290.77
2019-02-27T01:25:51.398Z,101280.94
2019-02-27T01:28:17.723Z,101290.52
2019-02-27T01:30:44.108Z,101292.38
2019-02-27T01:33:10.427Z,101295.69
2019-02-27T01:35:37.158Z,101290.14
2019-02-27T01:38:05.386Z,101285.56
2019-02-27T01:40:32.058Z,101289.64
2019-02-27T01:42:58.425Z,101288.58
2019-02-27T01:45:25.002Z,101285.10
2019-02-27T01:47:51.319Z,101274.61
2019-02-27T01:50:28.330Z,101271.91
2019-02-27T01:52:54.688Z,101267.30
2019-02-27T01:55:22.441Z,101267.34
2019-02-27T01:57:49.221Z,101259.72
2019-02-27T02:00:15.548Z,101265.39
2019-02-27T02:02:43.803Z,101253.87
2019-02-27T02:05:10.306Z,101262.79
2019-02-27T02:07:40.158Z,101261.36
2019-02-27T02:10:09.388Z,101265.66
2019-02-27T02:12:35.991Z,101259.59
2019-02-27T02:15:16.586Z,101211.19
2019-02-27T02:18:18.429Z,101253.67
2019-02-27T02:21:08.081Z,101258.78
2019-02-27T02:24:30.409Z,101263.25
2019-02-27T02:27:13.896Z,101250.28
2019-02-27T02:30:12.780Z,101249.88
2019-02-27T02:33:02.539Z,101256.22
2019-02-27T02:35:55.628Z,101251.16
2019-02-27T02:38:39.063Z,101244.07
2019-02-27T02:41:46.784Z,101249.33
2019-02-27T02:44:37.661Z,101243.53
2019-02-27T02:47:45.687Z,101239.44
2019-02-27T02:50:35.597Z,101231.68
2019-02-27T02:53:34.555Z,101234.79
2019-02-27T02:56:23.938Z,101237.28
2019-02-27T02:59:32.317Z,101221.02
2019-02-27T03:02:12.959Z,101224.16
2019-02-27T03:04:51.624Z,101219.63
2019-02-27T03:07:44.740Z,101214.40
2019-02-27T03:10:25.174Z,101207.47
2019-02-27T03:13:14.904Z,101202.79
2019-02-27T03:15:46.930Z,101200.57
2019-02-27T03:18:46.372Z,101203.37
2019-02-27T03:22:03.106Z,101206.69
2019-02-27T03:24:37.322Z,101192.52
2019-02-27T03:27:32.932Z,101194.80
2019-02-27T03:30:34.211Z,101194.36
2019-02-27T03:33:27.251Z,101182.85
2019-02-27T03:36:14.029Z,101188.92
2019-02-27T03:38:59.118Z,101183.36
2019-02-27T03:41:43.963Z,101183.84
2019-02-27T03:44:24.460Z,101187.16
2019-02-27T03:47:39.782Z,101187.48
2019-02-27T03:50:41.453Z,101185.55
2019-02-27T03:53:22.759Z,101183.47
2019-02-27T03:56:15.545Z,101184.70
2019-02-27T03:59:05.576Z,101190.16
2019-02-27T04:01:47.514Z,101178.34
2019-02-27T04:04:48.222Z,101172.78
2019-02-27T04:07:32.768Z,101176.67
2019-02-27T04:09:59.126Z,101173.42
2019-02-27T04:12:25.468Z,101178.57
2019-02-27T04:14:52.299Z,101172.13
2019-02-27T04:17:26.441Z,101174.52
2019-02-27T04:19:52.875Z,101169.27
2019-02-27T04:22:19.194Z,101165.92
2019-02-27T04:24:45.743Z,101162.19
2019-02-27T04:27:12.140Z,101161.49
2019-02-27T04:29:41.073Z,101173.88
2019-02-27T04:32:09.666Z,101171.84
2019-02-27T04:34:36.524Z,101176.64
2019-02-27T04:37:02.892Z,101177.61
2019-02-27T04:39:30.599Z,101184.50
2019-02-27T04:41:56.893Z,101187.83
2019-02-27T04:44:23.312Z,101192.20
2019-02-27T04:46:49.885Z,101190.15
2019-02-27T04:49:16.474Z,101195.36
2019-02-27T04:51:43.069Z,101194.06
2019-02-27T04:54:09.468Z,101198.48
2019-02-27T04:56:35.755Z,101198.09
2019-02-27T04:59:02.178Z,101198.53
2019-02-27T05:01:28.615Z,101202.55
2019-02-27T05:03:54.958Z,101194.45
2019-02-27T05:06:21.263Z,101191.06
2019-02-27T05:08:47.603Z,101192.41
2019-02-27T05:11:14.841Z,101193.80
2019-02-27T05:13:41.551Z,101199.33
2019-02-27T05:16:08.223Z,101190.20
2019-02-27T05:18:34.923Z,101187.23
2019-02-27T05:21:01.659Z,101191.56
2019-02-27T05:23:30.840Z,101193.33
2019-02-27T05:25:57.068Z,101199.66
2019-02-27T05:28:23.629Z,101193.27
2019-02-27T05:30:49.939Z,101195.53
2019-02-27T05:33:16.335Z,101203.06
2019-02-27T05:35:42.662Z,101203.69
2019-02-27T05:38:12.527Z,101203.66
2019-02-27T05:40:38.874Z,101200.25
2019-02-27T05:43:05.465Z,101201.10
2019-02-27T05:45:31.795Z,101198.02
2019-02-27T05:47:58.412Z,101202.39
2019-02-27T05:50:25.004Z,101198.52
2019-02-27T05:52:51.331Z,101207.69
2019-02-27T05:55:17.743Z,101198.45
2019-02-27T05:57:44.047Z,101195.61
2019-02-27T06:00:14.481Z,101190.49
2019-02-27T06:02:41.962Z,101195.53
2019-02-27T06:05:09.542Z,101197.77
2019-02-27T06:07:36.118Z,101198.18
2019-02-27T06:10:07.209Z,101195.94
2019-02-27T06:12:33.929Z,101194.77
2019-02-27T06:15:00.252Z,101188.55
2019-02-27T06:17:26.865Z,101189.59
2019-02-27T06:19:53.265Z,101191.18
2019-02-27T06:22:19.584Z,101186.14
2019-02-27T06:24:46.393Z,101180.20
2019-02-27T06:27:13.883Z,101181.25
2019-02-27T06:29:40.252Z,101180.45
2019-02-27T06:32:06.838Z,101173.95
2019-02-27T06:34:33.425Z,101172.87
2019-02-27T06:36:59.878Z,101165.04
2019-02-27T06:39:26.248Z,101166.05
2019-02-27T06:41:52.563Z,101164.02
2019-02-27T06:44:19.146Z,101166.20
2019-02-27T06:46:45.549Z,101157.27
2019-02-27T06:49:11.903Z,101165.70
2019-02-27T06:51:38.552Z,101166.39
2019-02-27T06:54:05.166Z,101163.02
2019-02-27T06:56:32.743Z,101159.41
2019-02-27T06:58:59.106Z,101162.98
2019-02-27T07:01:25.665Z,101170.42
2019-02-27T07:03:52.039Z,101163.14
2019-02-27T07:06:21.319Z,101161.18
2019-02-27T07:08:46.640Z,101152.63
2019-02-27T07:11:12.991Z,101155.41
2019-02-27T07:13:39.550Z,101138.07
2019-02-27T07:16:06.174Z,101141.06
2019-02-27T07:18:32.501Z,101145.50
2019-02-27T07:20:59.239Z,101140.22
2019-02-27T07:23:25.927Z,101136.16
2019-02-27T07:25:52.264Z,101136.28
2019-02-27T07:28:18.586Z,101140.50
2019-02-27T07:30:44.911Z,101138.95
2019-02-27T07:33:11.308Z,101146.58
2019-02-27T07:35:37.641Z,101149.15
2019-02-27T07:38:04.130Z,101142.53
2019-02-27T07:40:30.446Z,101147.83
2019-02-27T07:42:57.037Z,101145.48
2019-02-27T07:45:23.444Z,101144.77
2019-02-27T07:47:49.909Z,101136.04
2019-02-27T07:50:17.613Z,101135.78
2019-02-27T07:52:43.922Z,101133.06
2019-02-27T07:55:21.838Z,101133.45
2019-02-27T07:57:44.879Z,101132.02
2019-02-27T08:00:22.264Z,101129.64
2019-02-27T08:02:48.855Z,101135.56
2019-02-27T08:05:15.204Z,101136.92
2019-02-27T08:07:41.823Z,101130.34
2019-02-27T08:10:18.766Z,101127.95
2019-02-27T08:12:45.340Z,101127.59
2019-02-27T08:15:21.708Z,101121.77
2019-02-27T08:17:49.358Z,101121.66
2019-02-27T08:20:20.216Z,101121.58
2019-02-27T08:22:44.673Z,101119.58
2019-02-27T08:25:15.654Z,101121.67
2019-02-27T08:27:43.873Z,101113.52
2019-02-27T08:30:21.663Z,101114.83
2019-02-27T08:32:48.297Z,101113.66
2019-02-27T08:35:16.619Z,101115.91
2019-02-27T08:37:42.882Z,101113.44
2019-02-27T08:40:11.902Z,101112.41
2019-02-27T08:42:40.535Z,101110.05
2019-02-27T08:45:19.846Z,101114.92
2019-02-27T08:47:44.355Z,101112.42
2019-02-27T08:50:13.945Z,101106.20
2019-02-27T08:52:40.274Z,101103.88
2019-02-27T08:55:18.858Z,101098.37
2019-02-27T08:57:38.638Z,101094.94
2019-02-27T09:00:17.662Z,101090.39
2019-02-27T09:02:44.221Z,101094.48
2019-02-27T09:05:10.547Z,101075.20
2019-02-27T09:07:37.075Z,101078.33
2019-02-27T09:10:11.309Z,101070.21
2019-02-27T09:12:37.791Z,101074.75
2019-02-27T09:15:06.860Z,101071.95
2019-02-27T09:17:33.512Z,101064.70
2019-02-27T09:20:00.076Z,101065.95
2019-02-27T09:22:26.518Z,101050.67
2019-02-27T09:24:53.890Z,101060.51
2019-02-27T09:27:20.458Z,101058.38
2019-02-27T09:29:46.773Z,101055.47
2019-02-27T09:32:13.089Z,101048.45
2019-02-27T09:34:40.264Z,101053.50
2019-02-27T09:37:06.594Z,101048.66
2019-02-27T09:39:35.023Z,101047.27
2019-02-27T09:42:01.468Z,101041.89
2019-02-27T09:44:27.938Z,101035.78
2019-02-27T09:46:54.558Z,101038.22
2019-02-27T09:49:20.878Z,101024.80
2019-02-27T09:51:47.331Z,101023.34
2019-02-27T09:54:14.019Z,101017.13
2019-02-27T09:56:40.345Z,101011.12
2019-02-27T09:59:07.118Z,101016.02
2019-02-27T10:01:35.269Z,101017.55
2019-02-27T10:04:01.686Z,101006.66
2019-02-27T10:06:28.274Z,101005.91
2019-02-27T10:08:56.481Z,101004.64
2019-02-27T10:11:23.102Z,101003.84
2019-02-27T10:13:49.523Z,101002.11
2019-02-27T10:16:15.994Z,100996.13
2019-02-27T10:18:42.604Z,100999.48
2019-02-27T10:21:11.673Z,100997.63
2019-02-27T10:23:37.662Z,100997.36
2019-02-27T10:26:04.288Z,100996.14
2019-02-27T10:28:30.890Z,100995.73
2019-02-27T10:30:57.496Z,100991.53
2019-02-27T10:33:25.816Z,100991.29
2019-02-27T10:35:52.362Z,100986.21
2019-02-27T10:38:18.898Z,100983.14
2019-02-27T10:40:46.030Z,100982.44
2019-02-27T10:43:13.244Z,100975.02
2019-02-27T10:45:39.829Z,100967.16
2019-02-27T10:48:06.377Z,100962.63
2019-02-27T10:50:35.496Z,100961.41
2019-02-27T10:53:01.137Z,100956.50
2019-02-27T10:55:27.448Z,100949.66
2019-02-27T10:57:53.820Z,100943.05
2019-02-27T11:00:29.948Z,100936.81
2019-02-27T11:02:57.696Z,100941.60
2019-02-27T11:05:27.163Z,100938.73
2019-02-27T11:07:53.810Z,100928.16
2019-02-27T11:10:21.712Z,100920.83
2019-02-27T11:12:48.686Z,100926.02
2019-02-27T11:15:17.859Z,100918.19
2019-02-27T11:17:44.178Z,100913.64
2019-02-27T11:20:11.944Z,100905.86
2019-02-27T11:22:38.240Z,100905.02
2019-02-27T11:25:09.664Z,100893.25
2019-02-27T11:27:36.383Z,100888.58
2019-02-27T11:30:15.062Z,100889.48
2019-02-27T11:32:41.384Z,100885.97
2019-02-27T11:35:08.179Z,100878.64
2019-02-27T11:37:34.544Z,100875.58
2019-02-27T11:40:02.204Z,100870.66
2019-02-27T11:42:28.966Z,100868.17
2019-02-27T11:44:57.024Z,100869.93
2019-02-27T11:47:23.717Z,100862.75
2019-02-27T11:49:50.109Z,100855.72
2019-02-27T11:52:16.388Z,100852.70
2019-02-27T11:54:43.843Z,100857.19
2019-02-27T11:57:10.331Z,100851.14
2019-02-27T11:59:36.958Z,100846.93
2019-02-27T12:02:03.616Z,100856.55
2019-02-27T12:04:29.949Z,100846.00
2019-02-27T12:06:56.598Z,100842.16
2019-02-27T12:09:23.200Z,100838.55
2019-02-27T12:11:49.857Z,100842.88
2019-02-27T12:14:16.497Z,100834.81
2019-02-27T12:16:43.124Z,100831.25
2019-02-27T12:19:09.710Z,100830.84
2019-02-27T12:21:36.040Z,100824.66
2019-02-27T12:24:02.651Z,100815.61
2019-02-27T12:26:29.262Z,100812.70
2019-02-27T12:28:55.626Z,100813.52
2019-02-27T12:31:22.302Z,100809.44
2019-02-27T12:33:48.934Z,100804.17
2019-02-27T12:36:16.079Z,100806.98
2019-02-27T12:38:43.827Z,100799.02
2019-02-27T12:41:10.186Z,100797.66
2019-02-27T12:43:36.512Z,100792.28
2019-02-27T12:46:03.130Z,100792.39
2019-02-27T12:48:29.633Z,100790.27
2019-02-27T12:50:56.976Z,100788.92
2019-02-27T12:53:23.630Z,100782.04
2019-02-27T12:55:49.918Z,100785.73
2019-02-27T12:58:16.545Z,100778.84
2019-02-27T13:00:43.144Z,100768.77
2019-02-27T13:03:09.593Z,100776.63
2019-02-27T13:05:36.428Z,100768.35
2019-02-27T13:08:03.283Z,100757.27
2019-02-27T13:10:34.058Z,100762.16
2019-02-27T13:12:58.213Z,100760.85
2019-02-27T13:15:26.309Z,100751.89
2019-02-27T13:17:56.070Z,100756.57
2019-02-27T13:20:28.793Z,100749.72
2019-02-27T13:22:55.113Z,100751.96
2019-02-27T13:25:24.006Z,100747.23
2019-02-27T13:27:49.709Z,100742.27
2019-02-27T13:30:19.055Z,100738.95
2019-02-27T13:32:45.703Z,100731.02
2019-02-27T13:35:12.552Z,100735.16
2019-02-27T13:37:43.770Z,100733.86
2019-02-27T13:40:19.661Z,100737.59
2019-02-27T13:42:53.493Z,100732.59
2019-02-27T13:45:25.625Z,100728.45
2019-02-27T13:47:52.802Z,100715.97
2019-02-27T13:50:26.995Z,100709.81
2019-02-27T13:52:54.112Z,100707.48
2019-02-27T13:55:22.306Z,100705.92
2019-02-27T13:57:50.726Z,100704.78
2019-02-27T14:00:25.748Z,100703.09
2019-02-27T14:02:52.772Z,100691.78
2019-02-27T14:05:24.807Z,100688.73
2019-02-27T14:07:57.302Z,100684.94
2019-02-27T14:10:24.329Z,100669.21
2019-02-27T14:12:50.695Z,100655.88
2019-02-27T14:15:20.270Z,100653.17
2019-02-27T14:17:46.832Z,100654.34
2019-02-27T14:20:19.880Z,100644.83
2019-02-27T14:22:47.092Z,100639.88
2019-02-27T14:25:20.374Z,100638.54
2019-02-27T14:27:48.124Z,100628.73
2019-02-27T14:30:22.352Z,100629.39
2019-02-27T14:32:57.120Z,100613.86
2019-02-27T14:35:24.549Z,100611.65
2019-02-27T14:38:00.314Z,100601.73
2019-02-27T14:40:27.610Z,100597.13
2019-02-27T14:42:59.897Z,100592.67
2019-02-27T14:45:26.937Z,100592.20
2019-02-27T14:47:53.776Z,100595.88
2019-02-27T14:50:22.396Z,100596.44
2019-02-27T14:53:00.456Z,100591.78
2019-02-27T14:55:28.644Z,100588.04
2019-02-27T14:57:56.168Z,100595.77
2019-02-27T15:00:27.350Z,100592.48
2019-02-27T15:03:02.835Z,100580.23
2019-02-27T15:05:29.744Z,100578.34
2019-02-27T15:07:56.144Z,100575.62
2019-02-27T15:10:23.099Z,100568.62
2019-02-27T15:12:53.968Z,100575.78
2019-02-27T15:15:29.775Z,100566.37
2019-02-27T15:17:56.229Z,100558.98
2019-02-27T15:20:41.319Z,100550.19
2019-02-27T15:23:54.356Z,100551.30
2019-02-27T15:26:45.179Z,100549.05
2019-02-27T15:29:09.500Z,100535.91
2019-02-27T15:31:35.851Z,100532.11
2019-02-27T15:34:02.476Z,100525.39
2019-02-27T15:36:30.413Z,100518.14
2019-02-27T15:38:56.901Z,100519.19
2019-02-27T15:41:23.211Z,100515.31
2019-02-27T15:43:57.572Z,100513.73
2019-02-27T15:46:21.369Z,100505.05
2019-02-27T15:48:46.549Z,100499.34
2019-02-27T15:51:13.241Z,100499.61
2019-02-27T15:53:39.756Z,100489.77
2019-02-27T15:56:08.574Z,100486.93
2019-02-27T15:58:34.663Z,100477.78
2019-02-27T16:01:02.141Z,100473.95
2019-02-27T16:03:29.822Z,100466.84
2019-02-27T16:05:56.475Z,100462.23
2019-02-27T16:08:25.994Z,100460.92
2019-02-27T16:10:55.221Z,100460.66
2019-02-27T16:13:21.169Z,100454.57
2019-02-27T16:15:48.517Z,100453.99
2019-02-27T16:18:15.475Z,100455.45
2019-02-27T16:20:42.055Z,100446.17
2019-02-27T16:23:08.378Z,100446.66
2019-02-27T16:25:34.973Z,100452.47
2019-02-27T16:28:01.583Z,100441.55
2019-02-27T16:30:33.450Z,100440.04
2019-02-27T16:33:00.107Z,100442.89
2019-02-27T16:35:26.445Z,100436.86
2019-02-27T16:37:56.595Z,100441.16
2019-02-27T16:40:25.657Z,100434.66
2019-02-27T16:42:52.751Z,100423.96
2019-02-27T16:45:36.660Z,100425.82
2019-02-27T16:48:02.119Z,100426.55
2019-02-27T16:50:28.671Z,100424.24
2019-02-27T16:52:55.481Z,100429.84
2019-02-27T16:55:26.280Z,100422.17
2019-02-27T16:57:56.453Z,100423.19
2019-02-27T17:00:31.436Z,100421.34
2019-02-27T17:02:57.961Z,100421.17
2019-02-27T17:05:24.575Z,100424.31
2019-02-27T17:07:51.175Z,100425.34
2019-02-27T17:10:37.689Z,100419.84
2019-02-27T17:13:05.003Z,100419.05
2019-02-27T17:15:35.820Z,100413.48
2019-02-27T17:18:00.404Z,100409.21
2019-02-27T17:20:27.710Z,100401.07
2019-02-27T17:22:54.109Z,100402.52
2019-02-27T17:25:20.489Z,100397.88
2019-02-27T17:27:49.847Z,100396.22
2019-02-27T17:30:21.096Z,100396.09
2019-02-27T17:32:47.769Z,100393.58
2019-02-27T17:35:14.063Z,100388.80
2019-02-27T17:37:40.732Z,100389.98
2019-02-27T17:40:16.174Z,100364.73
2019-02-27T17:42:42.992Z,100391.20
2019-02-27T17:45:14.101Z,100394.31
2019-02-27T17:47:40.518Z,100389.64
2019-02-27T17:50:09.553Z,100387.38
2019-02-27T17:52:36.415Z,100384.23
2019-02-27T17:55:06.868Z,100383.38
2019-02-27T17:57:33.851Z,100382.17
2019-02-27T18:00:00.504Z,100375.47
2019-02-27T18:02:26.850Z,100377.42
2019-02-27T18:04:53.894Z,100371.45
2019-02-27T18:07:20.525Z,100367.45
2019-02-27T18:09:46.966Z,100363.12
2019-02-27T18:12:13.284Z,100361.40
2019-02-27T18:14:43.525Z,100358.63
2019-02-27T18:17:08.535Z,100366.75
2019-02-27T18:19:34.881Z,100363.36
2019-02-27T18:22:01.598Z,100356.23
2019-02-27T18:24:33.155Z,100356.47
2019-02-27T18:26:56.433Z,100353.81
2019-02-27T18:29:22.758Z,100349.23
2019-02-27T18:31:49.188Z,100342.34
2019-02-27T18:34:15.558Z,100344.14
2019-02-27T18:36:43.131Z,100336.95
2019-02-27T18:39:10.444Z,100333.91
2019-02-27T18:41:36.820Z,100328.72
2019-02-27T18:44:04.801Z,100320.30
2019-02-27T18:46:31.702Z,100316.94
2019-02-27T18:48:58.052Z,100314.22
2019-02-27T18:51:24.727Z,100312.02
2019-02-27T18:53:51.404Z,100313.44
2019-02-27T18:56:18.046Z,100305.10
2019-02-27T18:58:44.720Z,100307.33
2019-02-27T19:01:11.392Z,100300.92
2019-02-27T19:03:37.992Z,100290.95
2019-02-27T19:06:04.714Z,100284.20
2019-02-27T19:08:31.317Z,100275.91
2019-02-27T19:10:57.711Z,100280.81
2019-02-27T19:13:24.381Z,100282.41
2019-02-27T19:15:50.876Z,100269.97
2019-02-27T19:18:17.523Z,100270.19
2019-02-27T19:20:45.460Z,100262.34
2019-02-27T19:23:17.337Z,100261.59
2019-02-27T19:25:41.107Z,100258.38
2019-02-27T19:28:07.867Z,100254.23
2019-02-27T19:30:34.854Z,100259.11
2019-02-27T19:33:02.019Z,100247.16
2019-02-27T19:35:31.655Z,100249.27
2019-02-27T19:37:58.381Z,100250.95
2019-02-27T19:40:29.894Z,100245.78
2019-02-27T19:42:56.155Z,100239.30
2019-02-27T19:45:24.150Z,100236.41
2019-02-27T19:47:54.633Z,100233.44
2019-02-27T19:50:19.517Z,100235.82
2019-02-27T19:52:46.292Z,100230.28
2019-02-27T19:55:12.840Z,100232.29
2019-02-27T19:57:42.334Z,100223.52
2019-02-27T20:00:33.574Z,100222.59
2019-02-27T20:03:01.083Z,100218.77
2019-02-27T20:05:25.241Z,100217.69
2019-02-27T20:07:52.618Z,100208.37
2019-02-27T20:10:19.059Z,100200.20
2019-02-27T20:12:47.769Z,100195.12
2019-02-27T20:15:18.917Z,100191.58
2019-02-27T20:17:45.250Z,100185.38
2019-02-27T20:20:21.084Z,100176.63
2019-02-27T20:22:52.964Z,100176.56
2019-02-27T20:25:18.179Z,100171.12
2019-02-27T20:27:45.005Z,100170.59
2019-02-27T20:30:17.964Z,100158.59
2019-02-27T20:32:45.782Z,100154.57
2019-02-27T20:35:12.612Z,100146.13
2019-02-27T20:37:40.289Z,100143.38
2019-02-27T20:40:11.033Z,100136.09
2019-02-27T20:42:38.192Z,100131.35
2019-02-27T20:45:20.106Z,100133.89
2019-02-27T20:47:47.114Z,100131.36
2019-02-27T20:50:21.853Z,100127.82
2019-02-27T20:52:46.542Z,100129.80
2019-02-27T20:55:14.459Z,100122.22
2019-02-27T20:57:42.292Z,100121.97
2019-02-27T21:00:14.240Z,100114.52
2019-02-27T21:02:40.742Z,100101.83
2019-02-27T21:07:36.903Z,100094.02
2019-02-27T21:10:09.251Z,100090.47
2019-02-27T21:12:37.315Z,100081.80
2019-02-27T21:15:09.281Z,100082.09
2019-02-27T21:17:36.882Z,100070.52
2019-02-27T21:20:11.122Z,100061.84
2019-02-27T21:22:36.360Z,100058.51
2019-02-27T21:25:05.207Z,100055.23
2019-02-27T21:27:33.111Z,100051.61
2019-02-27T21:30:00.010Z,100044.41
2019-02-27T21:32:26.619Z,100038.27
2019-02-27T21:34:55.243Z,100034.36
2019-02-27T21:37:23.295Z,100028.33
2019-02-27T21:39:49.954Z,100029.98
2019-02-27T21:42:19.364Z,100022.79
2019-02-27T21:44:45.913Z,100027.20
2019-02-27T21:47:13.532Z,100028.33
2019-02-27T21:49:40.144Z,100023.45
2019-02-27T21:52:06.842Z,100018.50
2019-02-27T21:54:38.391Z,100022.82
2019-02-27T21:57:01.455Z,100021.69
2019-02-27T21:59:28.946Z,100015.80
2019-02-27T22:01:56.325Z,100013.39
2019-02-27T22:04:23.519Z,100011.23
2019-02-27T22:06:49.960Z,100008.17
2019-02-27T22:09:16.627Z,99996.53
2019-02-27T22:11:43.270Z,99996.80
2019-02-27T22:14:09.572Z,99995.92
2019-02-27T22:16:36.579Z,99992.38
2019-02-27T22:19:03.605Z,99992.20
2019-02-27T22:21:31.332Z,99990.06
2019-02-27T22:23:58.324Z,99989.28
2019-02-27T22:26:24.724Z,99991.25
2019-02-27T22:28:54.446Z,99980.42
2019-02-27T22:31:19.613Z,99983.68
2019-02-27T22:33:46.443Z,99981.48
2019-02-27T22:36:13.573Z,99973.48
2019-02-27T22:38:40.209Z,99974.83
2019-02-27T22:41:09.531Z,99971.58
2019-02-27T22:43:35.164Z,99966.14
2019-02-27T22:46:01.515Z,99956.77
2019-02-27T22:48:28.807Z,99949.30
2019-02-27T22:50:55.280Z,99941.98
2019-02-27T22:53:21.874Z,99936.36
2019-02-27T22:55:48.238Z,99936.68
2019-02-27T22:58:14.608Z,99931.13
2019-02-27T23:00:50.465Z,99929.83
2019-02-27T23:03:23.820Z,99917.50
2019-02-27T23:05:50.598Z,99906.64
2019-02-27T23:08:17.203Z,99907.25
2019-02-27T23:10:44.216Z,99908.67
2019-02-27T23:13:12.785Z,99901.36
2019-02-27T23:15:40.100Z,99894.89
2019-02-27T23:18:07.094Z,99890.50
2019-02-27T23:20:33.427Z,99883.23
2019-02-27T23:23:02.401Z,99880.63
2019-02-27T23:25:28.163Z,99881.92
2019-02-27T23:27:57.628Z,99880.39
2019-02-27T23:30:23.553Z,99880.59
2019-02-27T23:32:49.955Z,99878.59
2019-02-27T23:35:16.872Z,99873.39
2019-02-27T23:37:43.393Z,99879.39
2019-02-27T23:40:09.988Z,99869.72
2019-02-27T23:42:36.595Z,99872.63
2019-02-27T23:45:10.014Z,99867.38
2019-02-27T23:47:35.206Z,99864.66
2019-02-27T23:50:01.548Z,99865.38
2019-02-27T23:52:28.104Z,99854.07
2019-02-27T23:54:54.718Z,99848.02
2019-02-27T23:57:23.577Z,99845.58
2019-02-27T23:59:49.390Z,99835.70
